sensor_id;sensor_type;location;lat;lon;timestamp;P1;durP1;ratioP1;P2;durP2;ratioP2
21955;SDS011;11142;49.930;8.606;2022-10-16T05:50:19;5.13;;;3.53;;
21955;SDS011;11142;49.930;8.606;2022-10-16T05:52:47;5.82;;;3.53;;
21955;SDS011;11142;49.930;8.606;2022-10-16T05:55:15;6.80;;;3.88;;
21955;SDS011;11142;49.930;8.606;2022-10-16T05:57:43;4.65;;;3.40;;
21955;SDS011;11142;49.930;8.606;2022-10-16T06:00:11;7.45;;;3.70;;
21955;SDS011;11142;49.930;8.606;2022-10-16T06:02:39;6.80;;;4.40;;
21955;SDS011;11142;49.930;8.606;2022-10-16T06:05:07;9.60;;;4.32;;
21955;SDS011;11142;49.930;8.606;2022-10-16T06:07:37;9.52;;;4.75;;
21955;SDS011;11142;49.930;8.606;2022-10-16T06:10:05;7.30;;;4.03;;
21955;SDS011;11142;49.930;8.606;2022-10-16T06:12:34;5.63;;;4.10;;
21955;SDS011;11142;49.930;8.606;2022-10-16T06:15:02;5.53;;;3.90;;
21955;SDS011;11142;49.930;8.606;2022-10-16T06:17:30;6.00;;;4.15;;
21955;SDS011;11142;49.930;8.606;2022-10-16T06:19:58;5.50;;;3.65;;
21955;SDS011;11142;49.930;8.606;2022-10-16T06:22:25;8.02;;;5.13;;
21955;SDS011;11142;49.930;8.606;2022-10-16T06:24:54;9.85;;;4.32;;
21955;SDS011;11142;49.930;8.606;2022-10-16T06:27:23;10.52;;;5.25;;
21955;SDS011;11142;49.930;8.606;2022-10-16T06:29:51;15.82;;;5.50;;
21955;SDS011;11142;49.930;8.606;2022-10-16T06:32:19;7.03;;;4.50;;
21955;SDS011;11142;49.930;8.606;2022-10-16T06:34:47;5.47;;;4.00;;
21955;SDS011;11142;49.930;8.606;2022-10-16T06:37:15;5.88;;;3.70;;
21955;SDS011;11142;49.930;8.606;2022-10-16T06:39:43;5.55;;;3.88;;
21955;SDS011;11142;49.930;8.606;2022-10-16T06:42:12;5.43;;;3.80;;
21955;SDS011;11142;49.930;8.606;2022-10-16T06:44:40;7.07;;;3.88;;
21955;SDS011;11142;49.930;8.606;2022-10-16T06:47:08;4.97;;;3.13;;
21955;SDS011;11142;49.930;8.606;2022-10-16T06:49:36;5.63;;;3.58;;
21955;SDS011;11142;49.930;8.606;2022-10-16T06:52:04;6.35;;;4.25;;
21955;SDS011;11142;49.930;8.606;2022-10-16T06:54:32;5.07;;;3.90;;
21955;SDS011;11142;49.930;8.606;2022-10-16T06:57:07;6.30;;;3.97;;
21955;SDS011;11142;49.930;8.606;2022-10-16T06:59:37;7.43;;;4.45;;
21955;SDS011;11142;49.930;8.606;2022-10-16T07:02:04;6.00;;;4.22;;
21955;SDS011;11142;49.930;8.606;2022-10-16T07:04:33;8.77;;;3.92;;
21955;SDS011;11142;49.930;8.606;2022-10-16T07:07:01;5.80;;;4.40;;
21955;SDS011;11142;49.930;8.606;2022-10-16T07:12:02;5.10;;;3.63;;
21955;SDS011;11142;49.930;8.606;2022-10-16T07:14:30;3.95;;;3.15;;
21955;SDS011;11142;49.930;8.606;2022-10-16T07:16:59;10.98;;;4.10;;
21955;SDS011;11142;49.930;8.606;2022-10-16T07:19:27;4.45;;;3.30;;
21955;SDS011;11142;49.930;8.606;2022-10-16T07:21:59;8.15;;;3.65;;
21955;SDS011;11142;49.930;8.606;2022-10-16T07:24:27;4.00;;;3.10;;
21955;SDS011;11142;49.930;8.606;2022-10-16T07:26:55;4.72;;;3.63;;
21955;SDS011;11142;49.930;8.606;2022-10-16T07:29:23;5.75;;;3.80;;
21955;SDS011;11142;49.930;8.606;2022-10-16T07:31:51;4.40;;;3.38;;
21955;SDS011;11142;49.930;8.606;2022-10-16T07:34:21;5.78;;;3.40;;
21955;SDS011;11142;49.930;8.606;2022-10-16T07:36:49;6.45;;;3.88;;
21955;SDS011;11142;49.930;8.606;2022-10-16T07:39:19;6.50;;;3.40;;
21955;SDS011;11142;49.930;8.606;2022-10-16T07:41:47;6.15;;;3.80;;
21955;SDS011;11142;49.930;8.606;2022-10-16T07:44:15;4.85;;;3.67;;
21955;SDS011;11142;49.930;8.606;2022-10-16T07:46:43;5.53;;;3.60;;
21955;SDS011;11142;49.930;8.606;2022-10-16T07:49:11;4.25;;;3.10;;
21955;SDS011;11142;49.930;8.606;2022-10-16T07:51:40;7.13;;;4.35;;
21955;SDS011;11142;49.930;8.606;2022-10-16T07:54:09;10.18;;;5.10;;
21955;SDS011;11142;49.930;8.606;2022-10-16T07:56:37;8.88;;;5.57;;
21955;SDS011;11142;49.930;8.606;2022-10-16T07:59:09;9.95;;;3.92;;
21955;SDS011;11142;49.930;8.606;2022-10-16T08:01:37;5.13;;;3.72;;
21955;SDS011;11142;49.930;8.606;2022-10-16T08:04:05;5.45;;;3.65;;
21955;SDS011;11142;49.930;8.606;2022-10-16T08:06:35;7.70;;;3.80;;
21955;SDS011;11142;49.930;8.606;2022-10-16T08:09:05;4.68;;;3.72;;
21955;SDS011;11142;49.930;8.606;2022-10-16T08:11:34;4.55;;;3.40;;
21955;SDS011;11142;49.930;8.606;2022-10-16T08:14:02;4.47;;;3.33;;
21955;SDS011;11142;49.930;8.606;2022-10-16T08:16:30;5.70;;;3.58;;
21955;SDS011;11142;49.930;8.606;2022-10-16T08:18:57;4.28;;;3.30;;
21955;SDS011;11142;49.930;8.606;2022-10-16T08:21:25;4.70;;;3.03;;
21955;SDS011;11142;49.930;8.606;2022-10-16T08:23:53;4.18;;;3.28;;
21955;SDS011;11142;49.930;8.606;2022-10-16T08:26:25;11.32;;;4.03;;
21955;SDS011;11142;49.930;8.606;2022-10-16T08:28:54;4.00;;;3.17;;
21955;SDS011;11142;49.930;8.606;2022-10-16T08:31:23;4.75;;;3.28;;
21955;SDS011;11142;49.930;8.606;2022-10-16T08:33:52;6.40;;;3.72;;
21955;SDS011;11142;49.930;8.606;2022-10-16T08:36:20;6.38;;;3.60;;
21955;SDS011;11142;49.930;8.606;2022-10-16T08:38:49;6.43;;;3.63;;
21955;SDS011;11142;49.930;8.606;2022-10-16T08:41:22;7.57;;;3.35;;
21955;SDS011;11142;49.930;8.606;2022-10-16T08:44:16;7.85;;;3.60;;
21955;SDS011;11142;49.930;8.606;2022-10-16T08:46:58;5.63;;;3.90;;
21955;SDS011;11142;49.930;8.606;2022-10-16T08:49:32;5.05;;;3.53;;
21955;SDS011;11142;49.930;8.606;2022-10-16T08:52:00;5.55;;;3.45;;
21955;SDS011;11142;49.930;8.606;2022-10-16T08:54:28;6.90;;;4.07;;
21955;SDS011;11142;49.930;8.606;2022-10-16T08:57:07;6.05;;;3.70;;
21955;SDS011;11142;49.930;8.606;2022-10-16T08:59:38;4.05;;;3.20;;
21955;SDS011;11142;49.930;8.606;2022-10-16T09:02:13;4.50;;;3.28;;
21955;SDS011;11142;49.930;8.606;2022-10-16T09:04:57;6.00;;;3.30;;
21955;SDS011;11142;49.930;8.606;2022-10-16T09:07:46;3.28;;;2.80;;
21955;SDS011;11142;49.930;8.606;2022-10-16T09:10:25;6.65;;;3.47;;
21955;SDS011;11142;49.930;8.606;2022-10-16T09:13:07;7.90;;;3.60;;
21955;SDS011;11142;49.930;8.606;2022-10-16T09:15:46;6.32;;;4.00;;
21955;SDS011;11142;49.930;8.606;2022-10-16T09:18:22;4.55;;;3.22;;
21955;SDS011;11142;49.930;8.606;2022-10-16T09:20:59;8.23;;;3.53;;
21955;SDS011;11142;49.930;8.606;2022-10-16T09:23:34;6.28;;;3.40;;
21955;SDS011;11142;49.930;8.606;2022-10-16T09:26:05;5.90;;;3.72;;
21955;SDS011;11142;49.930;8.606;2022-10-16T09:28:39;12.07;;;3.50;;
21955;SDS011;11142;49.930;8.606;2022-10-16T09:31:10;4.10;;;3.00;;
21955;SDS011;11142;49.930;8.606;2022-10-16T09:33:43;4.53;;;3.40;;
21955;SDS011;11142;49.930;8.606;2022-10-16T09:36:13;6.47;;;3.58;;
21955;SDS011;11142;49.930;8.606;2022-10-16T09:38:41;7.97;;;3.33;;
21955;SDS011;11142;49.930;8.606;2022-10-16T09:41:14;3.35;;;2.50;;
21955;SDS011;11142;49.930;8.606;2022-10-16T09:43:52;3.97;;;2.80;;
21955;SDS011;11142;49.930;8.606;2022-10-16T09:46:27;6.00;;;2.50;;
21955;SDS011;11142;49.930;8.606;2022-10-16T09:48:56;2.43;;;2.23;;
21955;SDS011;11142;49.930;8.606;2022-10-16T09:51:27;4.32;;;2.47;;
21955;SDS011;11142;49.930;8.606;2022-10-16T09:53:56;3.03;;;2.35;;
21955;SDS011;11142;49.930;8.606;2022-10-16T09:56:27;3.85;;;2.33;;
21955;SDS011;11142;49.930;8.606;2022-10-16T09:58:57;6.78;;;2.60;;
21955;SDS011;11142;49.930;8.606;2022-10-16T10:01:29;3.30;;;2.10;;
21955;SDS011;11142;49.930;8.606;2022-10-16T10:03:59;6.43;;;2.05;;
21955;SDS011;11142;49.930;8.606;2022-10-16T10:06:29;4.18;;;2.05;;
21955;SDS011;11142;49.930;8.606;2022-10-16T10:09:02;3.67;;;2.50;;
21955;SDS011;11142;49.930;8.606;2022-10-16T10:14:23;2.40;;;2.03;;
21955;SDS011;11142;49.930;8.606;2022-10-16T10:17:10;4.68;;;2.28;;
21955;SDS011;11142;49.930;8.606;2022-10-16T10:19:48;2.13;;;1.88;;
21955;SDS011;11142;49.930;8.606;2022-10-16T10:22:20;3.00;;;2.33;;
21955;SDS011;11142;49.930;8.606;2022-10-16T10:24:55;3.75;;;2.10;;
21955;SDS011;11142;49.930;8.606;2022-10-16T10:27:39;3.88;;;2.42;;
21955;SDS011;11142;49.930;8.606;2022-10-16T10:30:19;2.83;;;2.17;;
21955;SDS011;11142;49.930;8.606;2022-10-16T10:32:53;4.32;;;1.90;;
21955;SDS011;11142;49.930;8.606;2022-10-16T10:35:36;3.45;;;2.35;;
21955;SDS011;11142;49.930;8.606;2022-10-16T10:38:17;3.03;;;2.40;;
21955;SDS011;11142;49.930;8.606;2022-10-16T10:40:56;3.03;;;2.20;;
21955;SDS011;11142;49.930;8.606;2022-10-16T10:43:40;5.35;;;2.00;;
21955;SDS011;11142;49.930;8.606;2022-10-16T10:46:25;2.95;;;1.98;;
21955;SDS011;11142;49.930;8.606;2022-10-16T10:49:06;2.05;;;1.73;;
21955;SDS011;11142;49.930;8.606;2022-10-16T10:51:46;2.15;;;1.55;;
21955;SDS011;11142;49.930;8.606;2022-10-16T10:54:24;3.67;;;1.65;;
21955;SDS011;11142;49.930;8.606;2022-10-16T10:56:57;2.55;;;1.52;;
21955;SDS011;11142;49.930;8.606;2022-10-16T11:02:29;2.95;;;1.60;;
21955;SDS011;11142;49.930;8.606;2022-10-16T11:05:16;1.50;;;1.35;;
21955;SDS011;11142;49.930;8.606;2022-10-16T11:07:56;1.25;;;1.15;;
21955;SDS011;11142;49.930;8.606;2022-10-16T11:10:28;1.52;;;1.42;;
21955;SDS011;11142;49.930;8.606;2022-10-16T11:13:04;2.50;;;1.42;;
21955;SDS011;11142;49.930;8.606;2022-10-16T11:15:42;1.88;;;1.50;;
21955;SDS011;11142;49.930;8.606;2022-10-16T11:18:16;1.90;;;1.33;;
21955;SDS011;11142;49.930;8.606;2022-10-16T11:20:49;2.10;;;1.77;;
21955;SDS011;11142;49.930;8.606;2022-10-16T11:23:22;1.67;;;1.55;;
21955;SDS011;11142;49.930;8.606;2022-10-16T11:25:55;1.55;;;1.45;;
21955;SDS011;11142;49.930;8.606;2022-10-16T11:28:29;4.10;;;1.30;;
21955;SDS011;11142;49.930;8.606;2022-10-16T11:31:03;1.90;;;1.50;;
21955;SDS011;11142;49.930;8.606;2022-10-16T11:33:44;3.03;;;1.52;;
21955;SDS011;11142;49.930;8.606;2022-10-16T11:36:17;2.53;;;1.63;;
21955;SDS011;11142;49.930;8.606;2022-10-16T11:38:51;2.17;;;1.50;;
21955;SDS011;11142;49.930;8.606;2022-10-16T11:41:27;3.70;;;1.95;;
21955;SDS011;11142;49.930;8.606;2022-10-16T11:44:04;5.00;;;2.10;;
21955;SDS011;11142;49.930;8.606;2022-10-16T11:46:43;3.60;;;2.00;;
21955;SDS011;11142;49.930;8.606;2022-10-16T11:49:27;2.38;;;1.92;;
21955;SDS011;11142;49.930;8.606;2022-10-16T11:52:00;2.20;;;1.63;;
21955;SDS011;11142;49.930;8.606;2022-10-16T11:54:44;1.52;;;1.42;;
21955;SDS011;11142;49.930;8.606;2022-10-16T11:57:16;3.40;;;1.85;;
21955;SDS011;11142;49.930;8.606;2022-10-16T11:59:48;6.25;;;2.17;;
21955;SDS011;11142;49.930;8.606;2022-10-16T12:02:26;1.80;;;1.70;;
21955;SDS011;11142;49.930;8.606;2022-10-16T12:05:05;1.92;;;1.25;;
21955;SDS011;11142;49.930;8.606;2022-10-16T12:07:45;1.48;;;1.38;;
21955;SDS011;11142;49.930;8.606;2022-10-16T12:10:20;1.27;;;1.17;;
21955;SDS011;11142;49.930;8.606;2022-10-16T12:12:53;1.85;;;1.25;;
21955;SDS011;11142;49.930;8.606;2022-10-16T12:15:23;2.45;;;1.38;;
21955;SDS011;11142;49.930;8.606;2022-10-16T12:18:20;17.00;;;1.63;;
21955;SDS011;11142;49.930;8.606;2022-10-16T12:20:55;1.95;;;1.02;;
21955;SDS011;11142;49.930;8.606;2022-10-16T12:23:30;1.20;;;1.10;;
21955;SDS011;11142;49.930;8.606;2022-10-16T12:26:00;3.38;;;1.05;;
21955;SDS011;11142;49.930;8.606;2022-10-16T12:28:29;2.00;;;1.30;;
21955;SDS011;11142;49.930;8.606;2022-10-16T12:30:58;1.52;;;1.15;;
21955;SDS011;11142;49.930;8.606;2022-10-16T12:33:29;1.45;;;1.30;;
21955;SDS011;11142;49.930;8.606;2022-10-16T12:35:59;1.50;;;1.20;;
21955;SDS011;11142;49.930;8.606;2022-10-16T12:38:30;1.63;;;1.15;;
21955;SDS011;11142;49.930;8.606;2022-10-16T12:41:05;1.58;;;1.20;;
21955;SDS011;11142;49.930;8.606;2022-10-16T12:43:35;1.73;;;1.52;;
21955;SDS011;11142;49.930;8.606;2022-10-16T12:46:20;2.10;;;1.42;;
21955;SDS011;11142;49.930;8.606;2022-10-16T12:48:50;2.13;;;1.30;;
21955;SDS011;11142;49.930;8.606;2022-10-16T12:54:03;1.40;;;1.30;;
21955;SDS011;11142;49.930;8.606;2022-10-16T12:56:41;1.42;;;1.30;;
21955;SDS011;11142;49.930;8.606;2022-10-16T12:59:21;3.60;;;1.35;;
21955;SDS011;11142;49.930;8.606;2022-10-16T13:02:07;2.38;;;1.60;;
21955;SDS011;11142;49.930;8.606;2022-10-16T13:07:52;1.75;;;1.65;;
21955;SDS011;11142;49.930;8.606;2022-10-16T13:10:31;1.60;;;1.48;;
21955;SDS011;11142;49.930;8.606;2022-10-16T13:13:14;2.00;;;1.63;;
21955;SDS011;11142;49.930;8.606;2022-10-16T13:16:00;2.58;;;1.30;;
21955;SDS011;11142;49.930;8.606;2022-10-16T13:18:39;1.83;;;1.48;;
21955;SDS011;11142;49.930;8.606;2022-10-16T13:21:18;2.03;;;1.60;;
21955;SDS011;11142;49.930;8.606;2022-10-16T13:23:55;2.45;;;1.70;;
21955;SDS011;11142;49.930;8.606;2022-10-16T13:26:31;2.15;;;1.45;;
21955;SDS011;11142;49.930;8.606;2022-10-16T13:29:09;1.70;;;1.60;;
21955;SDS011;11142;49.930;8.606;2022-10-16T13:31:37;2.03;;;1.60;;
21955;SDS011;11142;49.930;8.606;2022-10-16T13:34:06;2.10;;;1.67;;
21955;SDS011;11142;49.930;8.606;2022-10-16T13:36:45;2.30;;;1.77;;
21955;SDS011;11142;49.930;8.606;2022-10-16T13:39:22;2.33;;;1.70;;
21955;SDS011;11142;49.930;8.606;2022-10-16T13:41:58;1.80;;;1.70;;
21955;SDS011;11142;49.930;8.606;2022-10-16T13:44:36;1.80;;;1.65;;
21955;SDS011;11142;49.930;8.606;2022-10-16T13:47:15;1.85;;;1.58;;
21955;SDS011;11142;49.930;8.606;2022-10-16T13:49:44;2.38;;;1.75;;
21955;SDS011;11142;49.930;8.606;2022-10-16T13:52:17;3.10;;;1.88;;
21955;SDS011;11142;49.930;8.606;2022-10-16T13:54:47;3.20;;;2.28;;
21955;SDS011;11142;49.930;8.606;2022-10-16T13:57:16;1.83;;;1.60;;
21955;SDS011;11142;49.930;8.606;2022-10-16T13:59:53;3.17;;;1.70;;
21955;SDS011;11142;49.930;8.606;2022-10-16T14:02:22;2.28;;;1.60;;
21955;SDS011;11142;49.930;8.606;2022-10-16T14:04:54;2.03;;;1.73;;
21955;SDS011;11142;49.930;8.606;2022-10-16T14:07:25;2.72;;;1.70;;
21955;SDS011;11142;49.930;8.606;2022-10-16T14:09:57;3.40;;;1.60;;
21955;SDS011;11142;49.930;8.606;2022-10-16T14:12:28;2.80;;;2.05;;
21955;SDS011;11142;49.930;8.606;2022-10-16T14:14:57;4.72;;;1.90;;
21955;SDS011;11142;49.930;8.606;2022-10-16T14:17:27;3.90;;;2.28;;
21955;SDS011;11142;49.930;8.606;2022-10-16T14:19:58;4.57;;;1.85;;
21955;SDS011;11142;49.930;8.606;2022-10-16T14:22:32;2.47;;;1.98;;
21955;SDS011;11142;49.930;8.606;2022-10-16T14:25:08;3.00;;;1.80;;
21955;SDS011;11142;49.930;8.606;2022-10-16T14:27:56;2.65;;;2.00;;
21955;SDS011;11142;49.930;8.606;2022-10-16T14:30:26;3.25;;;2.38;;
21955;SDS011;11142;49.930;8.606;2022-10-16T14:32:55;3.50;;;1.70;;
21955;SDS011;11142;49.930;8.606;2022-10-16T14:35:26;2.05;;;1.80;;
21955;SDS011;11142;49.930;8.606;2022-10-16T14:37:57;3.15;;;2.10;;
21955;SDS011;11142;49.930;8.606;2022-10-16T14:40:29;2.75;;;1.80;;
21955;SDS011;11142;49.930;8.606;2022-10-16T14:42:59;4.25;;;2.30;;
21955;SDS011;11142;49.930;8.606;2022-10-16T14:45:29;1.70;;;1.55;;
21955;SDS011;11142;49.930;8.606;2022-10-16T14:48:00;1.90;;;1.70;;
21955;SDS011;11142;49.930;8.606;2022-10-16T14:50:30;2.38;;;1.88;;
21955;SDS011;11142;49.930;8.606;2022-10-16T14:52:58;2.47;;;2.00;;
21955;SDS011;11142;49.930;8.606;2022-10-16T14:55:27;2.85;;;2.38;;
21955;SDS011;11142;49.930;8.606;2022-10-16T14:57:56;2.10;;;1.80;;
21955;SDS011;11142;49.930;8.606;2022-10-16T15:00:26;3.33;;;2.22;;
21955;SDS011;11142;49.930;8.606;2022-10-16T15:02:54;4.22;;;2.28;;
21955;SDS011;11142;49.930;8.606;2022-10-16T15:05:23;4.55;;;3.15;;
21955;SDS011;11142;49.930;8.606;2022-10-16T15:07:52;4.35;;;2.63;;
21955;SDS011;11142;49.930;8.606;2022-10-16T15:10:22;3.97;;;2.55;;
21955;SDS011;11142;49.930;8.606;2022-10-16T15:12:54;2.45;;;2.10;;
21955;SDS011;11142;49.930;8.606;2022-10-16T15:15:27;9.85;;;2.13;;
21955;SDS011;11142;49.930;8.606;2022-10-16T15:18:00;2.72;;;2.20;;
21955;SDS011;11142;49.930;8.606;2022-10-16T15:20:29;3.28;;;2.40;;
21955;SDS011;11142;49.930;8.606;2022-10-16T15:23:00;4.18;;;2.28;;
21955;SDS011;11142;49.930;8.606;2022-10-16T15:25:32;2.83;;;2.20;;
21955;SDS011;11142;49.930;8.606;2022-10-16T15:28:04;3.47;;;2.60;;
21955;SDS011;11142;49.930;8.606;2022-10-16T15:30:32;3.47;;;2.30;;
21955;SDS011;11142;49.930;8.606;2022-10-16T15:33:00;3.40;;;2.33;;
21955;SDS011;11142;49.930;8.606;2022-10-16T15:35:28;3.03;;;2.13;;
21955;SDS011;11142;49.930;8.606;2022-10-16T15:37:56;4.05;;;2.28;;
21955;SDS011;11142;49.930;8.606;2022-10-16T15:40:24;4.82;;;1.90;;
21955;SDS011;11142;49.930;8.606;2022-10-16T15:42:53;2.28;;;2.05;;
21955;SDS011;11142;49.930;8.606;2022-10-16T15:45:22;2.03;;;1.83;;
21955;SDS011;11142;49.930;8.606;2022-10-16T15:47:50;3.42;;;1.95;;
21955;SDS011;11142;49.930;8.606;2022-10-16T15:50:18;4.10;;;1.90;;
21955;SDS011;11142;49.930;8.606;2022-10-16T15:52:47;4.00;;;2.17;;
21955;SDS011;11142;49.930;8.606;2022-10-16T15:55:15;3.38;;;2.47;;
21955;SDS011;11142;49.930;8.606;2022-10-16T15:57:43;2.00;;;1.80;;
21955;SDS011;11142;49.930;8.606;2022-10-16T16:00:16;2.83;;;2.17;;
21955;SDS011;11142;49.930;8.606;2022-10-16T16:02:51;2.30;;;2.10;;
21955;SDS011;11142;49.930;8.606;2022-10-16T16:07:49;9.25;;;4.45;;
21955;SDS011;11142;49.930;8.606;2022-10-16T16:10:18;3.70;;;2.53;;
21955;SDS011;11142;49.930;8.606;2022-10-16T16:12:48;5.45;;;2.42;;
21955;SDS011;11142;49.930;8.606;2022-10-16T16:15:19;3.05;;;2.65;;
21955;SDS011;11142;49.930;8.606;2022-10-16T16:17:48;6.28;;;2.40;;
21955;SDS011;11142;49.930;8.606;2022-10-16T16:20:17;2.65;;;2.28;;
21955;SDS011;11142;49.930;8.606;2022-10-16T16:22:45;3.30;;;2.42;;
21955;SDS011;11142;49.930;8.606;2022-10-16T16:25:13;5.20;;;2.47;;
21955;SDS011;11142;49.930;8.606;2022-10-16T16:27:41;3.92;;;2.20;;
21955;SDS011;11142;49.930;8.606;2022-10-16T16:30:10;3.17;;;2.40;;
21955;SDS011;11142;49.930;8.606;2022-10-16T16:32:45;3.97;;;2.40;;
21955;SDS011;11142;49.930;8.606;2022-10-16T16:35:13;4.32;;;2.88;;
21955;SDS011;11142;49.930;8.606;2022-10-16T16:37:42;5.53;;;3.25;;
21955;SDS011;11142;49.930;8.606;2022-10-16T16:40:10;10.02;;;2.95;;
21955;SDS011;11142;49.930;8.606;2022-10-16T16:42:39;5.28;;;2.80;;
21955;SDS011;11142;49.930;8.606;2022-10-16T16:45:07;5.57;;;3.00;;
21955;SDS011;11142;49.930;8.606;2022-10-16T16:47:36;5.07;;;2.70;;
21955;SDS011;11142;49.930;8.606;2022-10-16T16:50:05;4.35;;;3.05;;
21955;SDS011;11142;49.930;8.606;2022-10-16T16:52:33;3.30;;;2.58;;
21955;SDS011;11142;49.930;8.606;2022-10-16T16:55:03;4.28;;;2.95;;
21955;SDS011;11142;49.930;8.606;2022-10-16T19:41:07;6.22;;;4.38;;
21955;SDS011;11142;49.930;8.606;2022-10-16T19:43:37;5.65;;;4.10;;
21955;SDS011;11142;49.930;8.606;2022-10-16T19:46:06;4.85;;;3.75;;
21955;SDS011;11142;49.930;8.606;2022-10-16T19:48:36;8.30;;;4.38;;
21955;SDS011;11142;49.930;8.606;2022-10-16T19:51:09;5.33;;;4.30;;
21955;SDS011;11142;49.930;8.606;2022-10-16T19:53:38;7.93;;;4.35;;
21955;SDS011;11142;49.930;8.606;2022-10-16T19:56:12;6.72;;;4.47;;
21955;SDS011;11142;49.930;8.606;2022-10-16T19:58:42;5.72;;;4.72;;
21955;SDS011;11142;49.930;8.606;2022-10-16T20:01:12;7.53;;;4.32;;
21955;SDS011;11142;49.930;8.606;2022-10-16T20:03:42;6.65;;;4.22;;
